Time;durP1;ratioP1;P1;durP2;ratioP2;P2;SDS_P1;SDS_P2;PMS_P1;PMS_P2;Temp;Humidity;BMP_temperature;BMP_pressure;BME280_temperature;BME280_humidity;BME280_pressure;Samples;Min_cycle;Max_cycle;Signal;HPM_P1;HPM_P2
2023/03/12 00:00:03;;;;;;;10.57;4.67;;;-1.50;99.90;;;;;;4151863;28;20503;-73
2023/03/12 00:02:05;;;;;;;9.07;4.17;;;-1.50;99.90;;;;;;4138907;28;21229;-74
2023/03/12 00:04:07;;;;;;;9.40;4.07;;;-1.50;99.90;;;;;;4141728;28;20490;-73
2023/03/12 00:06:09;;;;;;;13.23;4.60;;;-1.50;99.90;;;;;;4138548;28;20458;-73
2023/03/12 00:08:11;;;;;;;9.17;4.47;;;-1.50;99.90;;;;;;4136901;28;20498;-73
2023/03/12 00:10:13;;;;;;;8.23;4.40;;;-1.50;99.90;;;;;;4138292;28;21020;-73
2023/03/12 00:12:15;;;;;;;9.67;4.93;;;-1.50;99.90;;;;;;4139302;28;21199;-73
2023/03/12 00:14:18;;;;;;;12.50;5.00;;;-1.50;99.90;;;;;;4135436;28;20562;-72
2023/03/12 00:16:20;;;;;;;12.30;5.00;;;-1.50;99.90;;;;;;4134447;28;20452;-73
2023/03/12 00:18:22;;;;;;;10.47;4.97;;;-1.50;99.90;;;;;;4152062;28;20239;-74
2023/03/12 00:20:25;;;;;;;17.73;5.70;;;-1.50;99.90;;;;;;4138575;28;20486;-72
2023/03/12 00:22:27;;;;;;;14.27;6.80;;;-1.50;99.90;;;;;;4137439;28;20446;-74
2023/03/12 00:24:29;;;;;;;17.30;7.10;;;-1.50;99.90;;;;;;4138040;28;20463;-74
2023/03/12 00:26:31;;;;;;;12.53;6.23;;;-1.50;99.90;;;;;;4136778;28;20839;-73
2023/03/12 00:28:34;;;;;;;18.60;6.50;;;-1.50;99.90;;;;;;4137315;28;20479;-74
2023/03/12 00:30:39;;;;;;;13.00;5.80;;;-1.50;99.90;;;;;;4136970;28;20510;-73
2023/03/12 00:32:41;;;;;;;13.80;5.70;;;-1.50;99.90;;;;;;4138856;28;20459;-73
2023/03/12 00:34:43;;;;;;;11.90;5.77;;;-1.50;99.90;;;;;;4135756;28;20483;-72
2023/03/12 00:36:45;;;;;;;18.13;5.80;;;-1.50;99.90;;;;;;4134530;28;20451;-74
2023/03/12 00:38:47;;;;;;;10.37;5.30;;;-1.50;99.90;;;;;;4137152;28;21081;-75
2023/03/12 00:40:49;;;;;;;9.83;4.73;;;-1.50;99.90;;;;;;4133388;28;20475;-74
2023/03/12 00:42:51;;;;;;;10.50;4.77;;;-1.50;99.90;;;;;;4135803;28;20554;-75
2023/03/12 00:44:53;;;;;;;11.00;4.73;;;-1.30;99.90;;;;;;4133297;28;20537;-75
2023/03/12 00:46:56;;;;;;;13.57;4.90;;;-1.50;99.90;;;;;;4135355;28;20460;-75
2023/03/12 00:48:58;;;;;;;12.40;4.87;;;-1.50;99.90;;;;;;4140379;28;20479;-75
2023/03/12 00:51:00;;;;;;;10.57;4.80;;;-1.50;99.90;;;;;;4139275;28;20493;-74
2023/03/12 00:53:02;;;;;;;8.70;4.30;;;-1.60;99.90;;;;;;4140012;28;20473;-74
2023/03/12 00:55:06;;;;;;;9.70;4.80;;;-1.00;99.90;;;;;;4139175;28;20470;-74
2023/03/12 00:57:08;;;;;;;12.83;5.20;;;-1.60;99.90;;;;;;4141366;28;20520;-74
2023/03/12 00:59:10;;;;;;;12.97;5.60;;;-1.60;99.90;;;;;;4138924;28;20474;-74
2023/03/12 01:01:12;;;;;;;25.47;11.00;;;-1.60;99.90;;;;;;4139289;28;20443;-73
2023/03/12 01:03:16;;;;;;;20.20;9.13;;;-1.50;99.90;;;;;;4137859;28;20491;-74
2023/03/12 01:05:18;;;;;;;22.03;9.50;;;-1.60;99.90;;;;;;4138969;28;20458;-74
2023/03/12 01:07:20;;;;;;;19.10;8.57;;;-1.60;99.90;;;;;;4141644;28;20447;-74
2023/03/12 01:09:22;;;;;;;14.83;7.53;;;-1.60;99.90;;;;;;4138334;28;20499;-75
2023/03/12 01:11:24;;;;;;;16.10;6.90;;;-1.60;99.90;;;;;;4138433;28;20522;-73
2023/03/12 01:13:26;;;;;;;16.30;7.63;;;-1.60;99.90;;;;;;4136643;28;21049;-74
2023/03/12 01:15:28;;;;;;;14.23;6.30;;;-1.60;99.90;;;;;;4140783;28;20550;-74
2023/03/12 01:17:30;;;;;;;14.43;6.13;;;-1.60;99.90;;;;;;4138590;28;20516;-73
2023/03/12 01:19:34;;;;;;;13.80;6.40;;;-1.60;99.90;;;;;;4139129;28;20466;-74
2023/03/12 01:21:36;;;;;;;12.43;5.93;;;-1.70;99.90;;;;;;4138380;28;20483;-73
2023/03/12 01:23:38;;;;;;;13.13;5.77;;;-1.70;99.90;;;;;;4137152;28;20950;-74
2023/03/12 01:25:41;;;;;;;9.80;5.50;;;-1.70;99.90;;;;;;4139171;28;20454;-73
2023/03/12 01:27:43;;;;;;;12.27;6.20;;;-1.70;99.90;;;;;;4152947;28;20975;-75
2023/03/12 01:29:45;;;;;;;16.27;6.47;;;-1.70;99.90;;;;;;4137819;28;20485;-75
2023/03/12 01:31:46;;;;;;;15.03;6.83;;;-1.70;99.90;;;;;;4136897;28;20501;-74
2023/03/12 01:33:50;;;;;;;13.70;6.73;;;-1.70;99.90;;;;;;4137373;28;21652;-73
2023/03/12 01:35:53;;;;;;;15.37;6.80;;;-1.80;99.90;;;;;;4139594;28;20519;-73
2023/03/12 01:37:55;;;;;;;14.07;6.70;;;-1.70;99.90;;;;;;4138246;28;20543;-73
2023/03/12 01:39:57;;;;;;;19.10;7.57;;;-1.80;99.90;;;;;;4143137;28;20983;-74
2023/03/12 01:42:00;;;;;;;17.67;7.43;;;-1.80;99.90;;;;;;4138631;28;20475;-75
2023/03/12 01:44:04;;;;;;;15.27;6.73;;;-1.80;99.90;;;;;;4137459;28;20554;-73
2023/03/12 01:46:25;;;;;;;11.87;5.90;;;-1.80;99.90;;;;;;4141021;28;20559;-72
2023/03/12 01:48:30;;;;;;;13.10;5.63;;;-1.80;99.90;;;;;;4137349;28;20864;-74
2023/03/12 01:50:32;;;;;;;12.03;5.37;;;-1.80;99.90;;;;;;4137026;28;20521;-73
2023/03/12 01:52:37;;;;;;;13.33;5.33;;;-1.80;99.90;;;;;;4137530;28;20506;-73
2023/03/12 01:54:42;;;;;;;12.00;5.13;;;-1.80;99.90;;;;;;4139843;28;20467;-72
2023/03/12 01:56:45;;;;;;;10.73;4.77;;;-1.80;99.90;;;;;;4137873;28;20570;-73
2023/03/12 01:58:52;;;;;;;11.13;5.33;;;-1.80;99.90;;;;;;4137019;28;20522;-73
2023/03/12 02:00:55;;;;;;;13.30;4.97;;;-1.80;99.90;;;;;;4137747;28;20499;-74
2023/03/12 02:03:00;;;;;;;9.93;5.00;;;-1.80;99.90;;;;;;4137350;28;20474;-73
2023/03/12 02:05:08;;;;;;;9.87;4.93;;;-1.90;99.90;;;;;;4138728;28;20509;-73
2023/03/12 02:07:11;;;;;;;10.73;5.07;;;-1.90;99.90;;;;;;4134654;28;20923;-72
2023/03/12 02:09:18;;;;;;;11.07;5.50;;;-1.90;99.90;;;;;;4135020;28;20311;-73
2023/03/12 02:11:20;;;;;;;13.87;5.50;;;-1.90;99.90;;;;;;4136386;28;20497;-73
2023/03/12 02:13:22;;;;;;;13.67;6.30;;;-2.00;99.90;;;;;;4134473;28;21044;-73
2023/03/12 02:15:24;;;;;;;14.27;6.23;;;-2.00;99.90;;;;;;4136521;28;20470;-74
2023/03/12 02:17:26;;;;;;;13.20;6.13;;;-2.00;99.90;;;;;;4139980;28;20466;-75
2023/03/12 02:19:38;;;;;;;15.83;6.17;;;-2.00;99.90;;;;;;4138014;28;20529;-74
2023/03/12 02:21:39;;;;;;;15.90;6.10;;;-2.00;99.90;;;;;;4136117;28;20466;-73
2023/03/12 02:23:47;;;;;;;13.23;6.25;;;-2.00;99.90;;;;;;4140698;28;20302;-74
2023/03/12 02:25:53;;;;;;;12.50;6.30;;;-2.00;99.90;;;;;;4141099;28;20311;-73
2023/03/12 02:27:56;;;;;;;18.93;7.37;;;-2.00;99.90;;;;;;4139558;28;20462;-74
2023/03/12 02:29:59;;;;;;;16.13;7.13;;;-2.00;99.90;;;;;;4137166;28;21026;-75
2023/03/12 02:32:05;;;;;;;25.20;10.20;;;-2.00;99.90;;;;;;4137017;28;20490;-74
2023/03/12 02:34:08;;;;;;;32.33;11.13;;;-2.00;99.90;;;;;;4138664;28;20502;-73
2023/03/12 02:36:09;;;;;;;38.27;13.07;;;-2.00;99.90;;;;;;4137515;28;20458;-73
2023/03/12 02:38:36;;;;;;;31.67;11.13;;;-2.00;99.90;;;;;;4134826;28;20471;-73
2023/03/12 02:40:42;;;;;;;29.97;10.00;;;-2.00;99.90;;;;;;4135241;28;20459;-73
2023/03/12 02:42:46;;;;;;;26.20;9.83;;;-2.00;99.90;;;;;;4134841;28;20476;-73
2023/03/12 02:44:48;;;;;;;16.07;6.57;;;-2.00;99.90;;;;;;4137890;28;20551;-73
2023/03/12 02:46:52;;;;;;;18.27;7.53;;;-2.00;99.90;;;;;;4136986;28;20574;-73
2023/03/12 02:48:55;;;;;;;19.80;7.20;;;-1.90;99.90;;;;;;4138105;28;21434;-73
2023/03/12 02:50:57;;;;;;;23.00;7.73;;;-1.90;99.90;;;;;;4135440;28;20870;-74
2023/03/12 02:52:58;;;;;;;16.43;6.73;;;-1.90;99.90;;;;;;4138764;28;20477;-71
2023/03/12 02:55:00;;;;;;;17.60;6.10;;;-1.80;99.90;;;;;;4138348;28;20467;-74
2023/03/12 02:57:02;;;;;;;21.10;8.00;;;-1.80;99.90;;;;;;4138603;28;20504;-74
2023/03/12 02:59:07;;;;;;;19.43;6.63;;;-1.80;99.90;;;;;;4139223;28;20502;-73
2023/03/12 03:01:09;;;;;;;23.63;7.53;;;-1.80;99.90;;;;;;4135717;28;20487;-73
2023/03/12 03:03:11;;;;;;;16.47;6.27;;;-1.80;99.90;;;;;;4138585;28;20493;-74
2023/03/12 03:05:13;;;;;;;13.83;6.20;;;-1.80;99.90;;;;;;4135613;28;20463;-74
2023/03/12 03:07:15;;;;;;;18.07;6.10;;;-1.80;99.90;;;;;;4138441;28;21285;-74
2023/03/12 03:09:18;;;;;;;13.63;6.30;;;-1.70;99.90;;;;;;4140138;28;21008;-74
2023/03/12 03:11:23;;;;;;;10.90;5.33;;;-1.70;99.90;;;;;;4139176;28;21060;-74
2023/03/12 03:13:24;;;;;;;12.30;5.30;;;-1.70;99.90;;;;;;4135347;28;20472;-73
2023/03/12 03:15:30;;;;;;;16.10;5.10;;;-1.70;99.90;;;;;;4137942;28;21381;-72
2023/03/12 03:17:32;;;;;;;14.27;5.80;;;-1.70;99.90;;;;;;4136483;28;20518;-72
2023/03/12 03:19:36;;;;;;;16.83;5.90;;;-1.60;99.90;;;;;;4138058;28;20497;-72
2023/03/12 03:21:38;;;;;;;12.67;5.20;;;-1.60;99.90;;;;;;4138232;28;20459;-74
2023/03/12 03:23:40;;;;;;;12.13;4.83;;;-1.20;99.90;;;;;;4136196;28;20475;-73
2023/03/12 03:25:42;;;;;;;13.00;5.23;;;-1.60;99.90;;;;;;4135790;28;20876;-73
2023/03/12 03:27:44;;;;;;;13.73;5.67;;;-1.50;99.90;;;;;;4135833;28;20462;-73
2023/03/12 03:29:46;;;;;;;9.30;4.70;;;-1.40;99.90;;;;;;4141350;28;21059;-74
2023/03/12 03:31:50;;;;;;;9.73;4.87;;;-1.50;99.90;;;;;;4141205;28;20497;-74
2023/03/12 03:33:52;;;;;;;12.97;5.53;;;-1.40;99.90;;;;;;4138226;28;20513;-73
2023/03/12 03:35:54;;;;;;;11.40;5.30;;;-1.50;99.90;;;;;;4137214;28;21346;-73
2023/03/12 03:37:56;;;;;;;8.70;5.00;;;-1.50;99.90;;;;;;4137219;28;20457;-74
2023/03/12 03:39:58;;;;;;;16.77;5.03;;;-1.50;99.90;;;;;;4152692;28;20505;-73
2023/03/12 03:42:02;;;;;;;13.13;4.53;;;-1.60;99.90;;;;;;4139637;28;20772;-72
2023/03/12 03:44:06;;;;;;;14.57;4.60;;;-1.60;99.90;;;;;;4137067;28;20456;-73
2023/03/12 03:46:08;;;;;;;16.47;4.77;;;-1.60;99.90;;;;;;4134259;28;20459;-72
2023/03/12 03:48:12;;;;;;;11.70;4.90;;;-1.60;99.90;;;;;;4136618;28;20470;-73
2023/03/12 03:50:14;;;;;;;10.27;4.47;;;-1.60;99.90;;;;;;4136035;28;20491;-73
2023/03/12 03:52:16;;;;;;;10.87;4.60;;;-1.60;99.90;;;;;;4136564;28;20489;-73
2023/03/12 03:54:18;;;;;;;8.73;4.67;;;-1.70;99.90;;;;;;4137399;28;20538;-74
2023/03/12 03:56:20;;;;;;;9.23;4.47;;;-1.70;99.90;;;;;;4136440;28;20467;-75
2023/03/12 03:58:22;;;;;;;9.20;4.30;;;-1.70;99.90;;;;;;4135987;28;20550;-72
2023/03/12 04:00:24;;;;;;;15.00;4.70;;;-1.60;99.90;;;;;;4135919;28;20554;-75
2023/03/12 04:02:27;;;;;;;10.73;4.17;;;-1.70;99.90;;;;;;4137864;28;20547;-72
2023/03/12 04:04:30;;;;;;;10.27;3.90;;;-1.70;99.90;;;;;;4135452;28;20805;-72
2023/03/12 04:06:33;;;;;;;12.10;3.80;;;-1.70;99.90;;;;;;4135856;28;20462;-72
2023/03/12 04:08:36;;;;;;;10.33;3.80;;;-1.70;99.90;;;;;;4138733;28;20765;-73
2023/03/12 04:10:38;;;;;;;9.63;3.92;;;-1.70;99.90;;;;;;4139925;28;20536;-73
2023/03/12 04:12:40;;;;;;;10.90;4.20;;;-1.70;99.90;;;;;;4136717;28;20220;-73
2023/03/12 04:14:42;;;;;;;12.67;4.30;;;-1.70;99.90;;;;;;4136259;28;20447;-73
2023/03/12 04:16:44;;;;;;;9.53;4.17;;;-1.70;99.90;;;;;;4142502;28;20530;-73
2023/03/12 04:18:46;;;;;;;9.77;4.37;;;-1.70;99.90;;;;;;4137192;28;20985;-74
2023/03/12 04:20:50;;;;;;;9.00;4.17;;;-1.70;99.90;;;;;;4138726;28;20522;-73
2023/03/12 04:22:52;;;;;;;9.65;3.90;;;-1.70;99.90;;;;;;4136317;28;20486;-74
2023/03/12 04:24:54;;;;;;;9.70;4.45;;;-1.70;99.90;;;;;;4137162;28;20291;-73
2023/03/12 04:26:57;;;;;;;10.17;4.30;;;-1.80;99.90;;;;;;4140150;28;20752;-73
2023/03/12 04:29:00;;;;;;;8.20;4.22;;;-1.70;99.90;;;;;;4139626;28;21266;-73
2023/03/12 04:31:04;;;;;;;7.47;4.27;;;-1.70;99.90;;;;;;4136109;28;20227;-73
2023/03/12 04:33:07;;;;;;;13.07;4.20;;;-1.70;99.90;;;;;;4139324;28;20866;-73
2023/03/12 04:35:09;;;;;;;8.87;4.27;;;-1.70;99.90;;;;;;4137474;28;21040;-73
2023/03/12 04:37:13;;;;;;;10.50;4.73;;;-1.70;99.90;;;;;;4138966;28;20483;-73
2023/03/12 04:39:18;;;;;;;10.17;4.23;;;-1.70;99.90;;;;;;4138754;28;20482;-73
2023/03/12 04:41:20;;;;;;;9.30;3.80;;;-1.70;99.90;;;;;;4138745;28;20460;-72
2023/03/12 04:43:22;;;;;;;9.70;4.20;;;-1.70;99.90;;;;;;4139272;28;20562;-73
2023/03/12 04:45:24;;;;;;;8.90;4.20;;;-1.70;99.90;;;;;;4137121;28;20566;-73
2023/03/12 04:47:26;;;;;;;10.20;4.67;;;-1.70;99.90;;;;;;4137958;28;20454;-73
2023/03/12 04:49:28;;;;;;;15.53;4.57;;;-1.80;99.90;;;;;;4140421;28;20506;-73
2023/03/12 04:51:31;;;;;;;8.57;4.60;;;-1.80;99.90;;;;;;4138314;28;20511;-72
2023/03/12 04:53:34;;;;;;;10.30;4.40;;;-1.70;99.90;;;;;;4154202;28;20462;-73
2023/03/12 04:55:36;;;;;;;12.43;4.30;;;-1.70;99.90;;;;;;4136997;28;20475;-72
2023/03/12 04:57:38;;;;;;;10.70;4.70;;;-1.70;99.90;;;;;;4138476;28;20487;-73
2023/03/12 04:59:40;;;;;;;11.13;4.60;;;-1.60;99.90;;;;;;4136868;28;20502;-73
2023/03/12 05:01:43;;;;;;;12.13;4.30;;;-1.70;99.90;;;;;;4135823;28;20549;-73
2023/03/12 05:03:45;;;;;;;8.17;4.03;;;-1.50;99.90;;;;;;4140882;28;20448;-73
2023/03/12 05:05:47;;;;;;;11.00;4.03;;;-1.70;99.90;;;;;;4139104;28;21259;-73
2023/03/12 05:07:49;;;;;;;8.53;4.17;;;-1.70;99.90;;;;;;4151202;28;20581;-73
2023/03/12 05:09:52;;;;;;;10.13;4.43;;;-1.70;99.90;;;;;;4139403;28;20490;-74
2023/03/12 05:11:54;;;;;;;8.48;3.97;;;-1.70;99.90;;;;;;4139765;28;20480;-72
2023/03/12 05:13:56;;;;;;;11.37;3.80;;;-1.70;99.90;;;;;;4137316;28;20225;-73
2023/03/12 05:15:58;;;;;;;11.90;4.20;;;-1.70;99.90;;;;;;4137419;28;20455;-73
2023/03/12 05:18:00;;;;;;;9.50;4.43;;;-1.70;99.90;;;;;;4140928;28;20918;-73
2023/03/12 05:20:02;;;;;;;7.70;4.20;;;-1.70;99.90;;;;;;4140126;28;20650;-74
2023/03/12 05:22:04;;;;;;;8.77;4.33;;;-1.80;99.90;;;;;;4155436;28;20492;-74
2023/03/12 05:24:06;;;;;;;9.18;4.18;;;-1.80;99.90;;;;;;4135733;28;20474;-73
2023/03/12 05:26:17;;;;;;;11.80;4.30;;;-1.80;99.90;;;;;;4137136;28;20308;-74
2023/03/12 05:28:19;;;;;;;15.07;5.10;;;-1.80;99.90;;;;;;4136135;28;20212;-74
2023/03/12 05:30:21;;;;;;;7.93;3.63;;;-1.80;99.90;;;;;;4137651;28;20467;-73
2023/03/12 05:32:23;;;;;;;9.23;4.33;;;-1.90;99.90;;;;;;4139367;28;20518;-74
2023/03/12 05:34:25;;;;;;;10.35;4.28;;;-1.90;99.90;;;;;;4137135;28;20443;-71
2023/03/12 05:36:27;;;;;;;10.73;3.83;;;-1.90;99.90;;;;;;4139125;28;20208;-72
2023/03/12 05:38:28;;;;;;;11.20;4.33;;;-1.90;99.90;;;;;;4138325;28;21212;-74
2023/03/12 05:40:31;;;;;;;13.43;4.50;;;-1.90;99.90;;;;;;4143920;28;20481;-73
2023/03/12 05:42:34;;;;;;;17.97;4.47;;;-1.90;99.90;;;;;;4135237;28;20548;-73
2023/03/12 05:44:36;;;;;;;9.17;4.23;;;-1.90;99.90;;;;;;4140024;28;20546;-71
2023/03/12 05:46:38;;;;;;;10.17;4.17;;;-1.90;99.90;;;;;;4136586;28;20482;-72
2023/03/12 05:48:40;;;;;;;7.80;3.77;;;-1.90;99.90;;;;;;4135486;28;20515;-74
2023/03/12 05:50:42;;;;;;;9.00;3.93;;;-1.90;99.90;;;;;;4135978;28;20937;-74
2023/03/12 05:52:44;;;;;;;11.25;3.92;;;-1.90;99.90;;;;;;4136877;28;20513;-73
2023/03/12 05:54:46;;;;;;;13.97;4.60;;;-1.90;99.90;;;;;;4135903;28;20248;-73
2023/03/12 05:56:48;;;;;;;12.17;4.33;;;-1.90;99.90;;;;;;4140720;28;20508;-74
2023/03/12 05:58:51;;;;;;;9.80;4.03;;;-1.90;99.90;;;;;;4140172;28;20502;-73
2023/03/12 06:00:53;;;;;;;10.43;4.27;;;-1.90;99.90;;;;;;4135475;28;20452;-72
2023/03/12 06:02:55;;;;;;;10.53;4.47;;;-1.90;99.90;;;;;;4138180;28;20490;-73
2023/03/12 06:04:57;;;;;;;13.23;4.53;;;-1.80;99.90;;;;;;4134870;28;20491;-73
2023/03/12 06:07:02;;;;;;;11.23;4.17;;;-1.80;99.90;;;;;;4140363;28;20208;-75
2023/03/12 06:09:05;;;;;;;7.87;4.33;;;-1.80;99.90;;;;;;4139811;28;21003;-73
2023/03/12 06:11:07;;;;;;;8.70;4.00;;;-1.80;99.90;;;;;;4141313;28;21234;-71
2023/03/12 06:13:10;;;;;;;9.70;3.43;;;-1.80;99.90;;;;;;4140023;28;20907;-73
2023/03/12 06:15:13;;;;;;;8.37;3.90;;;-1.80;99.90;;;;;;4135723;28;20522;-74
2023/03/12 06:17:15;;;;;;;8.63;4.23;;;-1.80;99.90;;;;;;4139636;28;21452;-73
2023/03/12 06:19:17;;;;;;;7.40;3.50;;;-1.80;99.90;;;;;;4137848;28;20490;-73
2023/03/12 06:21:21;;;;;;;6.87;3.67;;;-1.80;99.90;;;;;;4139345;28;20204;-73
2023/03/12 06:23:23;;;;;;;11.30;3.72;;;-1.80;99.90;;;;;;4138168;28;20493;-73
2023/03/12 06:25:25;;;;;;;9.95;3.40;;;-1.80;99.90;;;;;;4136477;28;20693;-73
2023/03/12 06:27:27;;;;;;;5.78;2.97;;;-1.80;99.90;;;;;;4137183;28;20240;-72
2023/03/12 06:29:29;;;;;;;9.80;3.60;;;-1.80;99.90;;;;;;4139209;28;20889;-74
2023/03/12 06:31:32;;;;;;;6.50;3.37;;;-1.80;99.90;;;;;;4136598;28;20545;-74
2023/03/12 06:33:35;;;;;;;10.13;3.43;;;-1.70;99.90;;;;;;4139592;28;21039;-74
2023/03/12 06:35:37;;;;;;;11.83;3.47;;;-1.70;99.90;;;;;;4141565;28;20462;-74
2023/03/12 06:37:38;;;;;;;7.18;3.40;;;-1.60;99.90;;;;;;4135023;28;21053;-73
2023/03/12 06:39:40;;;;;;;8.03;3.90;;;-1.70;99.90;;;;;;4136075;28;20724;-74
2023/03/12 06:41:42;;;;;;;6.73;3.80;;;-1.60;99.90;;;;;;4136532;28;20501;-73
2023/03/12 06:43:45;;;;;;;8.33;3.93;;;-1.60;99.90;;;;;;4136386;28;20460;-74
2023/03/12 06:45:47;;;;;;;8.87;3.77;;;-1.60;99.90;;;;;;4152891;28;20461;-74
2023/03/12 06:47:50;;;;;;;5.87;3.10;;;-1.60;99.90;;;;;;4137925;28;20948;-74
2023/03/12 06:49:52;;;;;;;11.70;3.87;;;-1.50;99.90;;;;;;4138114;28;20844;-74
2023/03/12 06:51:55;;;;;;;9.73;3.60;;;-1.50;99.90;;;;;;4139087;28;20889;-72
2023/03/12 06:53:59;;;;;;;5.83;3.37;;;-1.50;99.90;;;;;;4137036;28;20486;-72
2023/03/12 06:56:02;;;;;;;8.23;3.70;;;-1.40;99.90;;;;;;4137158;28;20978;-74
2023/03/12 06:58:04;;;;;;;9.90;3.40;;;-1.30;99.90;;;;;;4136111;28;21410;-72
2023/03/12 07:00:10;;;;;;;8.60;3.80;;;-1.40;99.90;;;;;;4135292;28;20563;-75
2023/03/12 07:02:12;;;;;;;7.63;3.40;;;-1.40;99.90;;;;;;4137630;28;20957;-75
2023/03/12 07:04:15;;;;;;;9.03;3.07;;;-1.40;99.90;;;;;;4137211;28;20477;-74
2023/03/12 07:06:19;;;;;;;6.23;3.10;;;-1.40;99.90;;;;;;4139457;28;20542;-72
2023/03/12 07:08:21;;;;;;;5.23;2.90;;;-1.40;99.90;;;;;;4140303;28;20482;-74
2023/03/12 07:10:24;;;;;;;6.93;3.17;;;-1.30;99.90;;;;;;4138474;28;21030;-74
2023/03/12 07:12:26;;;;;;;7.20;3.43;;;-1.30;99.90;;;;;;4135990;28;20514;-73
2023/03/12 07:14:27;;;;;;;5.77;2.70;;;-1.30;99.90;;;;;;4138978;28;20555;-74
2023/03/12 07:16:30;;;;;;;4.50;2.90;;;-1.30;99.90;;;;;;4138967;28;20891;-73
2023/03/12 07:18:32;;;;;;;6.50;2.63;;;-1.20;99.90;;;;;;4150542;28;20487;-74
2023/03/12 07:20:37;;;;;;;7.57;3.07;;;-1.20;99.90;;;;;;4139105;28;20471;-72
2023/03/12 07:22:39;;;;;;;5.47;2.87;;;-1.20;99.90;;;;;;4139418;28;20824;-73
2023/03/12 07:24:41;;;;;;;5.90;2.90;;;-1.20;99.90;;;;;;4139360;28;20459;-73
2023/03/12 07:26:43;;;;;;;7.00;2.63;;;-1.10;99.90;;;;;;4138362;28;20463;-73
2023/03/12 07:28:45;;;;;;;5.20;2.60;;;-1.10;99.90;;;;;;4136199;28;20558;-72
2023/03/12 07:30:49;;;;;;;4.70;2.27;;;-1.10;99.90;;;;;;4134988;28;20555;-72
2023/03/12 07:32:51;;;;;;;6.00;2.13;;;-1.10;99.90;;;;;;4142763;28;20532;-73
2023/03/12 07:34:53;;;;;;;5.97;2.67;;;-1.00;99.90;;;;;;4143473;28;21124;-72
2023/03/12 07:36:56;;;;;;;6.67;2.60;;;-1.00;99.90;;;;;;4147904;28;20490;-72
2023/03/12 07:38:58;;;;;;;5.93;2.40;;;-0.90;99.90;;;;;;4143786;28;20973;-73
2023/03/12 07:41:00;;;;;;;6.13;2.33;;;-0.90;99.90;;;;;;4138770;28;20452;-73
2023/03/12 07:43:05;;;;;;;3.87;2.00;;;-0.80;99.90;;;;;;4142418;28;20483;-72
2023/03/12 07:45:08;;;;;;;3.20;2.00;;;-0.70;99.90;;;;;;4137274;28;20511;-72
2023/03/12 07:47:10;;;;;;;4.73;2.27;;;-0.70;99.90;;;;;;4143337;28;20494;-72
2023/03/12 07:49:12;;;;;;;7.63;2.20;;;-0.60;99.90;;;;;;4140382;28;20573;-73
2023/03/12 07:51:13;;;;;;;8.63;2.60;;;-0.60;99.90;;;;;;4138729;28;21083;-75
2023/03/12 07:53:17;;;;;;;2.93;2.00;;;-0.50;99.90;;;;;;4137025;28;20627;-74
2023/03/12 07:55:19;;;;;;;5.67;2.23;;;-0.50;99.90;;;;;;4137741;28;20962;-73
2023/03/12 07:57:21;;;;;;;4.70;2.57;;;-0.40;99.90;;;;;;4138041;28;20979;-73
2023/03/12 07:59:24;;;;;;;4.80;1.83;;;-0.40;99.90;;;;;;4134153;28;20521;-73
2023/03/12 08:01:30;;;;;;;6.10;2.00;;;-0.40;99.90;;;;;;4137353;28;20457;-73
2023/03/12 08:03:32;;;;;;;4.13;2.10;;;-0.30;99.90;;;;;;4141367;28;20930;-72
2023/03/12 08:05:35;;;;;;;3.43;1.97;;;-0.30;99.90;;;;;;4149974;28;20874;-72
2023/03/12 08:07:37;;;;;;;3.83;2.07;;;-0.20;99.90;;;;;;4144765;28;20532;-72
2023/03/12 08:09:40;;;;;;;4.43;2.10;;;-0.20;99.90;;;;;;4151143;28;20474;-72
2023/03/12 08:11:42;;;;;;;4.23;2.33;;;-0.20;99.90;;;;;;4141839;28;20543;-73
2023/03/12 08:13:46;;;;;;;5.27;2.40;;;-0.20;99.90;;;;;;4142368;28;21192;-72
2023/03/12 08:15:50;;;;;;;6.27;2.10;;;-0.10;99.90;;;;;;4140081;28;20467;-76
2023/03/12 08:17:52;;;;;;;5.40;2.30;;;0.00;99.90;;;;;;4147256;28;20507;-72
2023/03/12 08:19:53;;;;;;;7.27;2.50;;;0.10;99.90;;;;;;4142192;28;20469;-72
2023/03/12 08:21:56;;;;;;;9.80;2.20;;;0.20;99.90;;;;;;4142812;28;20866;-72
2023/03/12 08:23:58;;;;;;;3.57;1.73;;;0.20;99.90;;;;;;4143080;28;20510;-72
2023/03/12 08:26:02;;;;;;;3.43;2.17;;;0.30;99.90;;;;;;4139399;28;20544;-74
2023/03/12 08:28:04;;;;;;;3.73;1.87;;;0.40;99.90;;;;;;4139638;28;20975;-72
2023/03/12 08:30:07;;;;;;;4.67;1.97;;;0.40;99.90;;;;;;4143457;28;20481;-71
2023/03/12 08:32:13;;;;;;;7.07;2.60;;;0.50;99.90;;;;;;4140239;28;20457;-73
2023/03/12 08:34:15;;;;;;;6.77;2.60;;;0.50;99.90;;;;;;4136240;28;20524;-74
2023/03/12 08:36:17;;;;;;;4.73;2.10;;;0.60;99.90;;;;;;4137027;28;20469;-73
2023/03/12 08:38:20;;;;;;;3.37;1.70;;;0.60;99.90;;;;;;4138152;28;20893;-73
2023/03/12 08:40:21;;;;;;;3.70;1.80;;;0.60;99.90;;;;;;4136187;28;20517;-71
2023/03/12 08:42:25;;;;;;;5.10;1.87;;;0.70;99.90;;;;;;4141640;28;20492;-74
2023/03/12 08:44:27;;;;;;;3.50;1.70;;;0.70;99.90;;;;;;4139200;28;20504;-72
2023/03/12 08:46:29;;;;;;;6.17;2.07;;;0.80;99.90;;;;;;4132345;28;20471;-73
2023/03/12 08:48:32;;;;;;;6.00;2.10;;;0.80;99.90;;;;;;4140539;28;20462;-73
2023/03/12 08:50:34;;;;;;;7.50;2.37;;;0.90;99.90;;;;;;4138025;28;20974;-73
2023/03/12 08:52:36;;;;;;;6.57;2.67;;;1.00;99.90;;;;;;4140005;28;20519;-72
2023/03/12 08:54:38;;;;;;;4.60;2.50;;;1.10;99.90;;;;;;4140265;28;20457;-73
2023/03/12 08:56:42;;;;;;;3.67;1.80;;;1.20;99.90;;;;;;4153315;28;20979;-72
2023/03/12 08:58:45;;;;;;;6.30;2.03;;;1.30;99.90;;;;;;4136573;28;20482;-73
2023/03/12 09:00:47;;;;;;;4.27;2.00;;;1.40;99.90;;;;;;4135346;28;20490;-72
2023/03/12 09:02:51;;;;;;;4.93;1.93;;;1.50;99.90;;;;;;4137416;28;20497;-72
2023/03/12 09:04:53;;;;;;;7.43;1.90;;;1.60;99.90;;;;;;4137948;28;20459;-73
2023/03/12 09:06:55;;;;;;;7.00;1.87;;;1.70;99.90;;;;;;4137203;28;20539;-72
2023/03/12 09:08:56;;;;;;;2.93;1.63;;;1.80;99.90;;;;;;4135528;28;20507;-73
2023/03/12 09:10:58;;;;;;;5.97;1.77;;;1.80;99.90;;;;;;4142335;28;21261;-75
2023/03/12 09:13:05;;;;;;;6.47;1.80;;;1.90;99.90;;;;;;4144072;28;20486;-74
2023/03/12 09:15:09;;;;;;;6.73;1.93;;;2.00;99.90;;;;;;4143675;28;20504;-73
2023/03/12 09:17:11;;;;;;;7.13;1.80;;;2.00;99.90;;;;;;4139829;28;20458;-71
2023/03/12 09:19:13;;;;;;;6.23;2.00;;;2.10;99.90;;;;;;4129652;28;20485;-76
2023/03/12 09:21:15;;;;;;;4.07;2.03;;;2.20;99.90;;;;;;4134805;28;20459;-71
2023/03/12 09:23:17;;;;;;;4.47;1.80;;;2.30;99.90;;;;;;4140220;28;20447;-71
2023/03/12 09:25:20;;;;;;;5.17;1.93;;;2.30;99.90;;;;;;4136668;28;20485;-71
2023/03/12 09:27:24;;;;;;;5.00;1.80;;;2.40;99.90;;;;;;4135490;28;20807;-72
2023/03/12 09:29:26;;;;;;;5.43;1.80;;;2.50;99.90;;;;;;4141513;28;20549;-71
2023/03/12 09:31:29;;;;;;;3.93;2.03;;;2.50;99.90;;;;;;4141499;28;20456;-72
2023/03/12 09:33:33;;;;;;;6.40;1.87;;;2.50;99.90;;;;;;4141152;28;20510;-74
2023/03/12 09:35:35;;;;;;;5.57;1.87;;;2.60;99.90;;;;;;4135148;28;20451;-74
2023/03/12 09:37:37;;;;;;;4.43;1.87;;;2.70;99.90;;;;;;4143806;28;20455;-72
2023/03/12 09:39:39;;;;;;;5.03;1.87;;;2.80;99.90;;;;;;4141763;28;20494;-72
2023/03/12 09:41:44;;;;;;;7.00;2.37;;;2.90;99.90;;;;;;4137890;28;20485;-74
2023/03/12 09:43:52;;;;;;;4.73;2.10;;;2.90;99.90;;;;;;4138389;28;20453;-73
2023/03/12 09:45:55;;;;;;;5.80;2.37;;;3.00;99.90;;;;;;4143209;28;20451;-72
2023/03/12 09:48:04;;;;;;;5.03;2.03;;;3.10;99.90;;;;;;4144736;28;20462;-71
2023/03/12 09:50:18;;;;;;;5.50;1.93;;;3.20;99.90;;;;;;4153480;28;20539;-73
2023/03/12 09:52:25;;;;;;;7.27;2.13;;;3.30;99.90;;;;;;4142935;28;20490;-72
2023/03/12 09:54:34;;;;;;;4.10;1.77;;;3.30;99.90;;;;;;4155706;28;20565;-72
2023/03/12 09:56:36;;;;;;;5.17;2.17;;;3.40;99.90;;;;;;4142942;28;20482;-72
2023/03/12 09:58:39;;;;;;;4.83;2.63;;;3.50;99.90;;;;;;4138139;28;21009;-73
2023/03/12 10:00:41;;;;;;;8.00;2.63;;;3.60;99.90;;;;;;4140121;28;20474;-71
2023/03/12 10:03:03;;;;;;;4.07;2.07;;;3.70;99.90;;;;;;4142028;28;20447;-71
2023/03/12 10:05:11;;;;;;;3.43;2.27;;;3.80;99.90;;;;;;4142372;28;20451;-71
2023/03/12 10:07:20;;;;;;;3.03;2.07;;;3.90;99.90;;;;;;4146173;28;20481;-72
2023/03/12 10:09:45;;;;;;;2.97;1.87;;;4.00;99.90;;;;;;4141111;28;20485;-74
2023/03/12 10:11:55;;;;;;;3.77;1.80;;;4.10;99.90;;;;;;4136390;28;20452;-73
2023/03/12 10:14:14;;;;;;;5.23;2.23;;;4.20;99.90;;;;;;4146694;28;20515;-76
2023/03/12 10:16:31;;;;;;;9.90;2.20;;;4.20;99.90;;;;;;4144497;28;20799;-73
2023/03/12 10:18:49;;;;;;;3.37;2.10;;;4.30;99.90;;;;;;4143845;28;20507;-72
2023/03/12 10:21:07;;;;;;;3.40;2.30;;;4.30;99.90;;;;;;4144113;28;20456;-71
2023/03/12 10:23:18;;;;;;;6.30;2.30;;;4.30;99.90;;;;;;4141839;28;21083;-73
2023/03/12 10:25:27;;;;;;;5.20;2.60;;;4.30;99.90;;;;;;4135234;28;20463;-76
2023/03/12 10:27:31;;;;;;;10.70;4.33;;;4.30;99.90;;;;;;4145233;28;20459;-72
2023/03/12 10:29:36;;;;;;;12.00;4.70;;;4.40;99.90;;;;;;4142467;28;20487;-74
2023/03/12 10:31:48;;;;;;;6.27;3.10;;;4.40;99.90;;;;;;4144305;28;20514;-77
2023/03/12 10:33:53;;;;;;;6.87;2.57;;;4.40;99.90;;;;;;4144298;28;21080;-74
2023/03/12 10:35:57;;;;;;;5.73;2.63;;;4.40;99.90;;;;;;4143044;28;20495;-75
2023/03/12 10:38:00;;;;;;;6.53;2.30;;;4.40;99.90;;;;;;4140828;28;20447;-76